createdAt,value
2019-03-22T00:05:19.995Z,8.63
2019-03-22T00:07:48.753Z,8.58
2019-03-22T00:14:09.804Z,8.22
2019-03-22T00:23:13.802Z,7.59
2019-03-22T00:25:54.194Z,7.47
2019-03-22T00:28:41.111Z,7.38
2019-03-22T00:31:20.955Z,7.32
2019-03-22T00:34:07.867Z,7.22
2019-03-22T00:42:29.582Z,6.94
2019-03-22T00:48:29.887Z,6.79
2019-03-22T00:51:09.942Z,6.74
2019-03-22T00:54:09.138Z,6.70
2019-03-22T00:59:48.051Z,6.93
2019-03-22T01:08:52.057Z,7.64
2019-03-22T01:20:42.518Z,7.82
2019-03-22T01:23:29.775Z,7.70
2019-03-22T01:26:09.297Z,7.56
2019-03-22T01:37:18.116Z,7.19
2019-03-22T01:51:51.034Z,7.24
2019-03-22T01:54:18.770Z,7.30
2019-03-22T01:56:47.472Z,7.34
2019-03-22T02:02:09.961Z,7.64
2019-03-22T02:05:18.263Z,7.85
2019-03-22T02:08:05.131Z,7.92
2019-03-22T02:10:32.897Z,7.78
2019-03-22T02:13:20.921Z,7.77
2019-03-22T02:16:36.324Z,7.95
2019-03-22T02:19:04.093Z,7.98
2019-03-22T02:22:12.458Z,8.05
2019-03-22T02:31:35.768Z,8.05
2019-03-22T02:34:03.484Z,7.96
2019-03-22T02:36:31.243Z,7.94
2019-03-22T02:39:00.035Z,7.94
2019-03-22T02:41:27.713Z,7.92
2019-03-22T02:43:55.933Z,8.13
2019-03-22T02:46:23.851Z,7.94
2019-03-22T02:48:51.646Z,7.78
2019-03-22T02:51:19.626Z,7.79
2019-03-22T02:53:47.604Z,7.97
2019-03-22T02:56:15.597Z,7.92
2019-03-22T02:58:43.728Z,7.75
2019-03-22T03:01:11.437Z,7.85
2019-03-22T03:03:39.531Z,7.90
2019-03-22T03:06:07.151Z,7.67
2019-03-22T03:08:34.881Z,7.67
2019-03-22T03:11:02.559Z,7.56
2019-03-22T03:13:31.010Z,7.66
2019-03-22T03:15:59.126Z,7.60
2019-03-22T03:18:26.918Z,7.59
2019-03-22T03:20:54.559Z,7.56
2019-03-22T03:23:22.372Z,7.46
2019-03-22T03:25:50.131Z,7.33
2019-03-22T03:28:18.980Z,7.17
2019-03-22T03:30:46.817Z,7.05
2019-03-22T03:33:14.515Z,7.08
2019-03-22T03:35:42.281Z,7.09
2019-03-22T03:38:10.075Z,7.03
2019-03-22T03:40:37.938Z,6.92
2019-03-22T03:43:05.925Z,6.85
2019-03-22T03:45:34.693Z,6.86
2019-03-22T03:48:03.299Z,6.76
2019-03-22T03:50:31.469Z,6.61
2019-03-22T03:52:59.443Z,6.71
2019-03-22T03:55:27.916Z,6.67
2019-03-22T03:57:55.740Z,6.82
2019-03-22T04:00:23.544Z,6.92
2019-03-22T04:02:51.140Z,6.88
2019-03-22T04:05:18.967Z,6.87
2019-03-22T04:07:46.817Z,6.76
2019-03-22T04:10:14.582Z,6.71
2019-03-22T04:12:42.302Z,6.72
2019-03-22T04:15:10.319Z,6.75
2019-03-22T04:17:39.111Z,6.77
2019-03-22T04:20:06.871Z,6.73
2019-03-22T04:22:36.324Z,6.68
2019-03-22T04:25:05.306Z,6.64
2019-03-22T04:27:33.159Z,6.58
2019-03-22T04:30:01.408Z,6.65
2019-03-22T04:32:29.366Z,6.69
2019-03-22T04:34:56.984Z,6.73
2019-03-22T04:37:24.804Z,6.85
2019-03-22T04:39:52.703Z,6.84
2019-03-22T04:42:20.399Z,6.74
2019-03-22T04:44:48.171Z,6.60
2019-03-22T04:47:19.477Z,6.43
2019-03-22T04:49:49.113Z,6.26
2019-03-22T04:52:22.697Z,6.10
2019-03-22T04:54:54.330Z,6.02
2019-03-22T04:57:24.208Z,5.94
2019-03-22T04:59:53.159Z,5.88
2019-03-22T05:02:21.980Z,5.80
2019-03-22T05:04:50.143Z,5.74
2019-03-22T05:07:18.254Z,5.79
2019-03-22T05:09:46.851Z,5.80
2019-03-22T05:12:18.377Z,5.77
2019-03-22T05:14:47.038Z,5.79
2019-03-22T05:17:15.590Z,5.82
2019-03-22T05:19:48.450Z,5.89
2019-03-22T05:22:19.027Z,6.01
2019-03-22T05:24:47.844Z,5.91
2019-03-22T05:27:16.903Z,5.75
2019-03-22T05:29:46.774Z,5.64
2019-03-22T05:32:16.604Z,5.61
2019-03-22T05:34:44.672Z,5.57
2019-03-22T05:37:12.419Z,5.53
2019-03-22T05:39:40.153Z,5.50
2019-03-22T05:42:07.880Z,5.50
2019-03-22T05:44:35.655Z,5.51
2019-03-22T05:47:03.659Z,5.54
2019-03-22T05:49:31.794Z,5.64
2019-03-22T05:51:59.502Z,5.71
2019-03-22T05:54:27.226Z,5.80
2019-03-22T05:56:55.077Z,5.94
2019-03-22T05:59:22.934Z,6.27
2019-03-22T06:01:50.657Z,7.31
2019-03-22T06:04:18.422Z,9.70
2019-03-22T06:06:46.580Z,12.21
2019-03-22T06:09:14.254Z,14.39
2019-03-22T06:11:42.589Z,16.23
2019-03-22T06:14:10.278Z,16.94
2019-03-22T06:16:37.979Z,17.57
2019-03-22T06:19:05.763Z,17.57
2019-03-22T06:21:33.606Z,17.74
2019-03-22T06:24:01.411Z,18.65
2019-03-22T06:26:29.327Z,20.02
2019-03-22T06:28:57.108Z,20.34
2019-03-22T06:31:24.901Z,21.06
2019-03-22T06:33:52.757Z,20.25
2019-03-22T06:36:20.663Z,20.90
2019-03-22T06:38:48.357Z,22.40
2019-03-22T06:41:16.132Z,23.42
2019-03-22T06:43:43.874Z,24.08
2019-03-22T06:46:12.440Z,24.34
2019-03-22T06:48:40.259Z,24.65
2019-03-22T06:51:08.160Z,24.92
2019-03-22T06:53:35.828Z,24.98
2019-03-22T06:56:03.599Z,25.22
2019-03-22T06:58:31.497Z,26.00
2019-03-22T07:00:59.715Z,26.43
2019-03-22T07:03:27.401Z,26.20
2019-03-22T07:05:55.144Z,25.56
2019-03-22T07:08:22.839Z,25.43
2019-03-22T07:10:50.998Z,26.33
2019-03-22T07:13:19.068Z,27.31
2019-03-22T07:15:46.784Z,28.61
2019-03-22T07:18:14.558Z,30.11
2019-03-22T07:20:42.730Z,30.86
2019-03-22T07:23:10.423Z,31.10
2019-03-22T07:25:38.260Z,29.88
2019-03-22T07:28:05.980Z,29.17
2019-03-22T07:30:33.812Z,29.34
2019-03-22T07:33:01.556Z,29.71
2019-03-22T07:35:30.189Z,30.58
2019-03-22T07:37:58.020Z,30.29
2019-03-22T07:40:26.202Z,29.92
2019-03-22T07:42:53.919Z,30.16
2019-03-22T07:45:21.620Z,30.17
2019-03-22T07:47:49.623Z,31.52
2019-03-22T07:50:17.344Z,32.78
2019-03-22T07:52:45.508Z,34.37
2019-03-22T07:55:13.242Z,35.18
2019-03-22T07:57:41.028Z,35.57
2019-03-22T08:00:09.280Z,36.83
2019-03-22T08:02:37.022Z,37.33
2019-03-22T08:05:05.659Z,37.65
2019-03-22T08:07:33.372Z,38.05
2019-03-22T08:10:01.257Z,38.58
2019-03-22T08:12:29.116Z,38.77
2019-03-22T08:14:57.293Z,38.82
2019-03-22T08:17:25.839Z,39.22
2019-03-22T08:19:53.872Z,39.76
2019-03-22T08:22:21.738Z,40.24
2019-03-22T08:24:49.429Z,40.14
2019-03-22T08:27:17.141Z,40.28
2019-03-22T08:29:44.917Z,39.75
2019-03-22T08:32:12.977Z,39.44
2019-03-22T08:35:12.152Z,39.28
2019-03-22T08:41:14.697Z,37.99
2019-03-22T08:52:46.483Z,37.50
2019-03-22T08:55:14.254Z,36.79
2019-03-22T09:00:57.727Z,36.88
2019-03-22T09:06:45.579Z,35.66
2019-03-22T09:09:13.473Z,35.51
2019-03-22T09:11:52.742Z,35.25
2019-03-22T09:14:20.595Z,35.00
2019-03-22T09:16:48.282Z,36.38
2019-03-22T09:19:27.961Z,35.71
2019-03-22T09:21:55.796Z,35.51
2019-03-22T09:24:23.720Z,34.32
2019-03-22T09:27:03.185Z,33.40
2019-03-22T09:32:10.713Z,32.44
2019-03-22T09:35:19.038Z,32.20
2019-03-22T09:37:46.842Z,30.63
2019-03-22T09:43:16.106Z,25.62
2019-03-22T09:45:44.102Z,23.46
2019-03-22T09:51:14.422Z,22.26
2019-03-22T09:53:48.476Z,21.69
2019-03-22T09:56:16.746Z,21.08
2019-03-22T09:58:44.643Z,21.13
2019-03-22T10:04:14.284Z,21.18
2019-03-22T10:06:42.403Z,21.32
2019-03-22T10:09:10.231Z,21.28
2019-03-22T10:12:18.603Z,21.26
2019-03-22T10:14:46.421Z,21.23
2019-03-22T10:17:14.359Z,21.11
2019-03-22T10:19:42.353Z,21.03
2019-03-22T10:22:31.769Z,21.35
2019-03-22T10:24:59.680Z,21.72
2019-03-22T10:27:27.708Z,21.68
2019-03-22T10:29:55.438Z,21.65
2019-03-22T10:35:26.341Z,21.22
2019-03-22T10:38:39.682Z,21.34
2019-03-22T10:41:19.436Z,21.08
2019-03-22T10:43:47.735Z,21.23
2019-03-22T10:46:56.535Z,21.56
2019-03-22T10:53:03.638Z,21.64
2019-03-22T10:55:31.292Z,21.81
2019-03-22T10:58:21.457Z,22.00
2019-03-22T11:06:32.665Z,21.23
2019-03-22T11:09:32.103Z,21.26
2019-03-22T11:14:39.738Z,21.11
2019-03-22T11:17:07.552Z,21.24
2019-03-22T11:19:35.320Z,21.27
2019-03-22T11:22:43.514Z,20.94
2019-03-22T11:28:45.540Z,20.68
2019-03-22T11:37:16.090Z,19.99
2019-03-22T11:42:56.942Z,19.33
2019-03-22T11:51:17.208Z,19.04
2019-03-22T11:53:44.911Z,18.76
2019-03-22T11:56:53.202Z,18.59
2019-03-22T12:02:55.504Z,18.38
2019-03-22T12:11:45.726Z,17.98
2019-03-22T12:14:53.928Z,17.74
2019-03-22T12:23:43.566Z,17.75
2019-03-22T12:26:51.861Z,17.72
2019-03-22T12:29:38.853Z,17.70
2019-03-22T12:32:47.307Z,17.68
2019-03-22T12:35:34.287Z,17.62
2019-03-22T12:38:42.601Z,17.66
2019-03-22T12:44:31.260Z,17.73
2019-03-22T12:46:59.011Z,17.73
2019-03-22T12:52:39.995Z,17.82
2019-03-22T12:58:42.135Z,17.89
2019-03-22T13:01:41.428Z,17.84
2019-03-22T13:04:20.996Z,17.86
2019-03-22T13:06:48.711Z,17.91
2019-03-22T13:09:35.655Z,17.90
2019-03-22T13:12:03.371Z,17.68
2019-03-22T13:14:31.107Z,17.64
2019-03-22T13:20:00.885Z,17.47
2019-03-22T13:22:29.055Z,17.45
2019-03-22T13:24:57.195Z,17.49
2019-03-22T13:27:26.160Z,17.64
2019-03-22T13:29:54.861Z,17.74
2019-03-22T13:32:23.027Z,17.73
2019-03-22T13:35:12.686Z,17.62
2019-03-22T13:38:00.049Z,17.53
2019-03-22T13:41:08.611Z,17.66
2019-03-22T13:43:55.541Z,17.76
2019-03-22T13:46:23.312Z,17.71
2019-03-22T13:48:51.218Z,17.92
2019-03-22T13:51:19.032Z,17.95
2019-03-22T13:53:46.824Z,17.87
2019-03-22T13:59:49.020Z,18.01
2019-03-22T14:02:28.621Z,18.22
2019-03-22T14:05:08.126Z,18.16
2019-03-22T14:07:35.864Z,18.10
2019-03-22T14:10:04.288Z,18.11
2019-03-22T14:13:12.581Z,18.09
2019-03-22T14:15:40.673Z,18.19
2019-03-22T14:18:08.340Z,18.22
2019-03-22T14:23:37.866Z,18.29
2019-03-22T14:26:46.131Z,18.31
2019-03-22T14:29:25.698Z,18.19
2019-03-22T14:35:07.448Z,18.15
2019-03-22T14:37:46.950Z,18.24
2019-03-22T14:40:55.145Z,18.45
2019-03-22T14:46:57.722Z,18.56
2019-03-22T14:50:05.996Z,18.54
2019-03-22T14:53:05.287Z,18.66
2019-03-22T14:58:47.500Z,18.71
2019-03-22T15:01:15.353Z,18.68
2019-03-22T15:03:43.152Z,18.69
2019-03-22T15:06:10.924Z,18.71
2019-03-22T15:08:38.724Z,18.79
2019-03-22T15:11:06.359Z,18.74
2019-03-22T15:13:39.525Z,18.71
2019-03-22T15:16:29.460Z,18.74
2019-03-22T15:19:19.714Z,18.70
2019-03-22T15:22:25.770Z,18.76
2019-03-22T15:25:11.906Z,18.94
2019-03-22T15:28:04.434Z,18.99
2019-03-22T15:30:49.962Z,18.88
2019-03-22T15:33:46.492Z,18.89
2019-03-22T15:36:42.828Z,18.94
2019-03-22T15:39:36.151Z,18.94
2019-03-22T15:42:04.018Z,18.80
2019-03-22T15:44:31.818Z,18.89
2019-03-22T15:46:59.526Z,18.85
2019-03-22T15:49:27.371Z,18.86
2019-03-22T15:51:55.450Z,18.81
2019-03-22T15:54:23.182Z,18.73
2019-03-22T15:56:51.210Z,18.91
2019-03-22T15:59:19.360Z,18.88
2019-03-22T16:01:47.100Z,18.92
2019-03-22T16:04:15.415Z,18.95
2019-03-22T16:06:43.546Z,19.02
2019-03-22T16:09:11.250Z,19.02
2019-03-22T16:11:39.226Z,18.87
2019-03-22T16:14:07.269Z,18.99
2019-03-22T16:16:35.101Z,18.95
2019-03-22T16:19:02.828Z,18.89
2019-03-22T16:21:30.602Z,18.75
2019-03-22T16:23:58.358Z,18.66
2019-03-22T16:26:26.124Z,18.60
2019-03-22T16:28:53.867Z,18.51
2019-03-22T16:31:21.679Z,18.42
2019-03-22T16:33:54.363Z,18.52
2019-03-22T16:36:19.205Z,18.55
2019-03-22T16:38:47.043Z,18.40
2019-03-22T16:41:14.773Z,18.35
2019-03-22T16:43:42.601Z,18.43
2019-03-22T16:46:10.359Z,18.49
2019-03-22T16:48:38.159Z,18.36
2019-03-22T16:51:05.919Z,18.35
2019-03-22T16:53:33.699Z,18.16
2019-03-22T16:56:01.389Z,18.13
2019-03-22T16:58:29.238Z,18.12
2019-03-22T17:00:57.345Z,17.92
2019-03-22T17:03:25.106Z,17.92
2019-03-22T17:05:52.755Z,17.79
2019-03-22T17:08:20.741Z,17.78
2019-03-22T17:10:48.959Z,17.73
2019-03-22T17:13:16.986Z,17.67
2019-03-22T17:15:44.623Z,17.49
2019-03-22T17:18:12.888Z,17.32
2019-03-22T17:20:40.632Z,16.99
2019-03-22T17:23:08.449Z,16.64
2019-03-22T17:25:36.548Z,16.43
2019-03-22T17:28:04.461Z,16.44
2019-03-22T17:30:32.276Z,16.31
2019-03-22T17:33:00.059Z,16.12
2019-03-22T17:35:28.128Z,15.92
2019-03-22T17:37:55.921Z,15.82
2019-03-22T17:40:23.904Z,15.71
2019-03-22T17:42:51.546Z,15.68
2019-03-22T17:45:19.550Z,15.61
2019-03-22T17:47:47.220Z,15.41
2019-03-22T17:50:15.743Z,15.19
2019-03-22T17:52:43.699Z,15.19
2019-03-22T17:55:11.749Z,14.98
2019-03-22T17:57:39.447Z,14.84
2019-03-22T18:00:07.328Z,14.64
2019-03-22T18:02:35.199Z,14.53
2019-03-22T18:05:03.448Z,14.55
2019-03-22T18:07:31.168Z,14.40
2019-03-22T18:09:59.071Z,14.23
2019-03-22T18:12:26.771Z,14.11
2019-03-22T18:14:54.464Z,13.98
2019-03-22T18:17:22.960Z,14.08
2019-03-22T18:19:50.660Z,14.11
2019-03-22T18:22:18.462Z,14.12
2019-03-22T18:24:46.212Z,13.99
2019-03-22T18:27:13.904Z,13.93
2019-03-22T18:29:41.496Z,13.83
2019-03-22T18:32:09.712Z,13.70
2019-03-22T18:34:37.616Z,13.62
2019-03-22T18:37:05.426Z,13.49
2019-03-22T18:39:33.274Z,13.34
2019-03-22T18:42:01.007Z,13.18
2019-03-22T18:44:28.772Z,12.97
2019-03-22T18:46:56.613Z,12.87
2019-03-22T18:49:24.422Z,12.80
2019-03-22T18:51:52.329Z,12.69
2019-03-22T18:54:20.090Z,12.61
2019-03-22T18:56:48.071Z,12.53
2019-03-22T18:59:15.801Z,12.48
2019-03-22T19:01:43.575Z,12.44
2019-03-22T19:04:11.332Z,12.38
2019-03-22T19:06:39.425Z,12.35
2019-03-22T19:09:07.943Z,12.29
2019-03-22T19:11:35.928Z,12.22
2019-03-22T19:14:03.696Z,12.10
2019-03-22T19:16:31.661Z,12.05
2019-03-22T19:18:59.791Z,12.00
2019-03-22T19:21:27.534Z,11.96
2019-03-22T19:23:55.327Z,11.88
2019-03-22T19:26:23.139Z,11.80
2019-03-22T19:28:50.839Z,11.72
2019-03-22T19:31:18.627Z,11.66
2019-03-22T19:33:46.307Z,11.60
2019-03-22T19:36:14.055Z,11.59
2019-03-22T19:38:42.076Z,11.58
2019-03-22T19:41:09.865Z,11.62
2019-03-22T19:43:37.940Z,11.64
2019-03-22T19:46:05.685Z,11.74
2019-03-22T19:48:33.430Z,11.86
2019-03-22T19:51:01.156Z,11.89
2019-03-22T19:53:29.264Z,11.84
2019-03-22T19:55:57.067Z,11.74
2019-03-22T19:58:24.701Z,11.63
2019-03-22T20:00:52.646Z,11.51
2019-03-22T20:03:20.358Z,11.46
2019-03-22T20:05:48.054Z,11.44
2019-03-22T20:08:16.010Z,11.33
2019-03-22T20:10:43.738Z,11.30
2019-03-22T20:13:11.498Z,11.22
2019-03-22T20:15:39.367Z,11.11
2019-03-22T20:18:07.360Z,11.05
2019-03-22T20:20:36.212Z,10.94
2019-03-22T20:23:04.272Z,10.91
2019-03-22T20:25:32.029Z,10.78
2019-03-22T20:27:59.632Z,10.65
2019-03-22T20:30:27.453Z,10.58
2019-03-22T20:32:55.201Z,10.58
2019-03-22T20:35:22.944Z,10.58
2019-03-22T20:37:50.767Z,10.50
2019-03-22T20:40:19.010Z,10.49
2019-03-22T20:42:47.109Z,10.45
2019-03-22T20:45:23.627Z,10.36
2019-03-22T20:47:44.981Z,10.26
2019-03-22T20:50:13.004Z,10.12
2019-03-22T20:52:41.028Z,10.01
2019-03-22T20:55:09.526Z,9.93
2019-03-22T20:57:46.958Z,9.90
2019-03-22T21:03:28.154Z,9.87
2019-03-22T21:08:55.958Z,9.85
2019-03-22T21:11:35.142Z,9.80
2019-03-22T21:20:17.492Z,9.75
2019-03-22T21:22:45.176Z,9.65
2019-03-22T21:25:24.916Z,9.57
2019-03-22T21:27:52.615Z,9.52
2019-03-22T21:30:32.258Z,9.47
2019-03-22T21:33:19.094Z,9.45
2019-03-22T21:38:48.317Z,9.50
2019-03-22T21:43:56.153Z,9.37
2019-03-22T21:46:24.220Z,9.35
2019-03-22T21:48:51.963Z,9.32
2019-03-22T21:52:00.251Z,9.30
2019-03-22T21:58:12.663Z,9.20
2019-03-22T22:00:40.369Z,9.19
2019-03-22T22:03:07.984Z,9.14
2019-03-22T22:05:54.934Z,9.11
2019-03-22T22:08:22.662Z,9.07
2019-03-22T22:10:59.430Z,9.08
2019-03-22T22:14:10.888Z,9.03
2019-03-22T22:16:38.605Z,8.97
2019-03-22T22:19:06.205Z,8.96
2019-03-22T22:21:33.996Z,8.89
2019-03-22T22:30:23.851Z,8.78
2019-03-22T22:36:04.928Z,8.73
2019-03-22T22:38:44.428Z,8.59
2019-03-22T22:41:12.191Z,8.54
2019-03-22T22:44:20.492Z,8.47
2019-03-22T22:49:50.578Z,8.34
2019-03-22T22:52:18.319Z,8.28
2019-03-22T22:54:57.835Z,8.22
2019-03-22T22:57:44.718Z,8.16
2019-03-22T23:00:13.365Z,8.12
2019-03-22T23:02:41.083Z,8.06
2019-03-22T23:05:49.384Z,7.99
2019-03-22T23:08:17.455Z,7.90
2019-03-22T23:11:25.746Z,7.84
2019-03-22T23:17:13.781Z,7.74
2019-03-22T23:23:02.553Z,7.70
2019-03-22T23:25:49.494Z,7.68
2019-03-22T23:28:57.813Z,7.77
2019-03-22T23:31:25.545Z,7.71
2019-03-22T23:37:08.009Z,7.54
2019-03-22T23:42:48.660Z,7.48
2019-03-22T23:53:49.146Z,7.33
2019-03-22T23:56:36.044Z,7.27
